createdAt,value
2023-01-26T00:00:13.319Z,100454.66
2023-01-26T00:03:02.091Z,100450.75
2023-01-26T00:05:29.704Z,100441.97
2023-01-26T00:07:58.256Z,100433.47
2023-01-26T00:10:25.836Z,100438.59
2023-01-26T00:12:52.954Z,100432.66
2023-01-26T00:15:20.411Z,100431.84
2023-01-26T00:17:47.697Z,100415.53
2023-01-26T00:20:15.757Z,100435.72
2023-01-26T00:22:43.682Z,100441.97
2023-01-26T00:25:12.705Z,100420.00
2023-01-26T00:27:40.277Z,100425.81
2023-01-26T00:30:09.391Z,100429.19
2023-01-26T00:32:37.133Z,100418.78
2023-01-26T00:35:06.238Z,100407.16
2023-01-26T00:37:36.715Z,100417.78
2023-01-26T00:40:10.748Z,100416.31
2023-01-26T00:42:40.046Z,100412.47
2023-01-26T00:45:10.251Z,100409.31
2023-01-26T00:47:39.167Z,100407.88
2023-01-26T00:50:07.171Z,100393.13
2023-01-26T00:52:34.368Z,100396.66
2023-01-26T00:55:03.718Z,100388.31
2023-01-26T00:57:30.924Z,100381.53
2023-01-26T00:59:58.461Z,100391.69
2023-01-26T01:02:25.711Z,100390.59
2023-01-26T01:04:54.305Z,100374.88
2023-01-26T01:07:22.498Z,100379.59
2023-01-26T01:09:52.493Z,100389.25
2023-01-26T01:12:19.659Z,100380.84
2023-01-26T01:14:47.131Z,100389.16
2023-01-26T01:17:14.375Z,100364.84
2023-01-26T01:19:42.546Z,100370.44
2023-01-26T01:22:09.995Z,100372.13
2023-01-26T01:24:37.808Z,100381.19
2023-01-26T01:27:04.992Z,100375.47
2023-01-26T01:29:33.222Z,100372.44
2023-01-26T01:32:00.401Z,100352.28
2023-01-26T01:34:28.559Z,100370.66
2023-01-26T01:36:58.574Z,100340.56
2023-01-26T01:39:26.090Z,100362.00
2023-01-26T01:41:53.863Z,100355.69
2023-01-26T01:44:26.471Z,100351.31
2023-01-26T01:47:02.620Z,100355.22
2023-01-26T01:49:38.859Z,100340.97
2023-01-26T01:52:10.384Z,100355.81
2023-01-26T01:54:43.177Z,100361.38
2023-01-26T01:57:18.338Z,100359.22
2023-01-26T01:59:53.356Z,100335.66
2023-01-26T02:02:20.959Z,100346.44
2023-01-26T02:04:49.920Z,100335.19
2023-01-26T02:07:19.253Z,100330.84
2023-01-26T02:10:05.608Z,100332.88
2023-01-26T02:12:34.012Z,100326.97
2023-01-26T02:15:04.222Z,100311.75
2023-01-26T02:17:32.149Z,100308.13
2023-01-26T02:20:02.776Z,100319.97
2023-01-26T02:22:46.129Z,100305.94
2023-01-26T02:25:38.373Z,100305.97
2023-01-26T02:28:08.109Z,100310.31
2023-01-26T02:30:35.712Z,100297.13
2023-01-26T02:33:06.647Z,100306.09
2023-01-26T02:35:35.269Z,100280.38
2023-01-26T02:38:03.754Z,100284.47
2023-01-26T02:40:34.375Z,100281.06
2023-01-26T02:43:02.631Z,100287.47
2023-01-26T02:45:33.054Z,100288.66
2023-01-26T02:48:04.805Z,100284.56
2023-01-26T02:50:33.346Z,100285.44
2023-01-26T02:53:02.835Z,100268.53
2023-01-26T02:55:31.661Z,100266.97
2023-01-26T02:58:01.675Z,100280.38
2023-01-26T03:00:37.659Z,100261.28
2023-01-26T03:03:42.031Z,100246.19
2023-01-26T03:06:11.375Z,100261.66
2023-01-26T03:08:39.283Z,100232.78
2023-01-26T03:11:08.462Z,100258.38
2023-01-26T03:13:35.997Z,100251.63
2023-01-26T03:16:08.168Z,100251.38
2023-01-26T03:18:54.546Z,100245.34
2023-01-26T03:21:43.923Z,100232.53
2023-01-26T03:24:32.917Z,100230.38
2023-01-26T03:27:21.159Z,100235.94
2023-01-26T03:29:48.381Z,100215.78
2023-01-26T03:32:15.956Z,100230.00
2023-01-26T03:34:43.581Z,100215.41
2023-01-26T03:37:12.191Z,100221.22
2023-01-26T03:40:04.341Z,100223.63
2023-01-26T03:42:55.306Z,100216.03
2023-01-26T03:45:42.099Z,100205.16
2023-01-26T03:48:31.245Z,100202.75
2023-01-26T03:51:18.231Z,100198.16
2023-01-26T03:54:04.584Z,100191.06
2023-01-26T03:56:34.750Z,100210.84
2023-01-26T03:59:15.524Z,100201.19
2023-01-26T04:02:05.639Z,100200.94
2023-01-26T04:04:53.616Z,100188.41
2023-01-26T04:07:43.849Z,100187.19
2023-01-26T04:10:11.938Z,100192.50
2023-01-26T04:12:39.318Z,100181.88
2023-01-26T04:15:33.651Z,100192.38
2023-01-26T04:18:25.721Z,100184.28
2023-01-26T04:21:11.851Z,100184.28
2023-01-26T04:23:41.845Z,100180.03
2023-01-26T04:26:09.370Z,100178.16
2023-01-26T04:28:37.125Z,100178.75
2023-01-26T04:31:06.560Z,100186.47
2023-01-26T04:33:36.423Z,100181.50
2023-01-26T04:36:10.397Z,100172.56
2023-01-26T04:38:41.640Z,100179.69
2023-01-26T04:41:09.304Z,100180.53
2023-01-26T04:43:43.459Z,100179.94
2023-01-26T04:46:11.757Z,100180.88
2023-01-26T04:48:40.940Z,100181.50
2023-01-26T04:51:15.757Z,100176.56
2023-01-26T04:53:43.935Z,100166.16
2023-01-26T04:56:44.091Z,100167.38
2023-01-26T04:59:13.580Z,100178.25
2023-01-26T05:01:42.661Z,100168.13
2023-01-26T05:04:14.060Z,100168.81
2023-01-26T05:06:45.187Z,100177.78
2023-01-26T05:09:12.379Z,100171.97
2023-01-26T05:11:43.238Z,100119.38
2023-01-26T05:14:29.209Z,100161.13
2023-01-26T05:17:05.347Z,100164.50
2023-01-26T05:19:51.001Z,100151.94
2023-01-26T05:22:37.004Z,100142.06
2023-01-26T05:25:31.912Z,100144.72
2023-01-26T05:28:06.194Z,100132.75
2023-01-26T05:30:33.672Z,100155.56
2023-01-26T05:33:03.747Z,100158.47
2023-01-26T05:35:33.271Z,100149.28
2023-01-26T05:38:01.256Z,100160.50
2023-01-26T05:40:31.610Z,100133.50
2023-01-26T05:42:59.697Z,100146.78
2023-01-26T05:45:46.128Z,100143.03
2023-01-26T05:48:15.424Z,100143.75
2023-01-26T05:50:43.431Z,100134.09
2023-01-26T05:53:17.328Z,100140.84
2023-01-26T05:55:44.770Z,100149.78
2023-01-26T05:58:13.568Z,100151.69
2023-01-26T06:00:41.321Z,100141.81
2023-01-26T06:03:15.897Z,100158.34
2023-01-26T06:05:44.280Z,100173.69
2023-01-26T06:08:19.165Z,100169.91
2023-01-26T06:11:07.895Z,100162.56
2023-01-26T06:13:55.697Z,100159.16
2023-01-26T06:16:27.605Z,100135.53
2023-01-26T06:18:56.731Z,100169.44
2023-01-26T06:21:24.437Z,100148.69
2023-01-26T06:23:52.114Z,100147.34
2023-01-26T06:26:19.529Z,100141.56
2023-01-26T06:28:48.121Z,100142.28
2023-01-26T06:31:16.403Z,100137.72
2023-01-26T06:33:44.375Z,100152.91
2023-01-26T06:36:14.793Z,100145.56
2023-01-26T06:38:53.978Z,100154.09
2023-01-26T06:41:22.893Z,100132.63
2023-01-26T06:43:53.947Z,100150.88
2023-01-26T06:46:22.092Z,100161.63
2023-01-26T06:48:50.964Z,100141.81
2023-01-26T06:51:22.967Z,100157.25
2023-01-26T06:53:54.514Z,100160.88
2023-01-26T06:56:47.885Z,100137.09
2023-01-26T06:59:42.901Z,100138.19
2023-01-26T07:02:31.111Z,100150.25
2023-01-26T07:04:58.890Z,100150.25
2023-01-26T07:07:26.073Z,100153.41
2023-01-26T07:09:53.556Z,100157.63
2023-01-26T07:12:21.239Z,100164.59
2023-01-26T07:14:51.059Z,100173.19
2023-01-26T07:17:18.288Z,100142.03
2023-01-26T07:19:45.762Z,100142.53
2023-01-26T07:22:14.414Z,100154.59
2023-01-26T07:24:43.193Z,100149.78
2023-01-26T07:27:11.520Z,100144.00
2023-01-26T07:29:39.046Z,100132.41
2023-01-26T07:32:08.225Z,100136.50
2023-01-26T07:34:36.322Z,100142.78
2023-01-26T07:37:03.511Z,100141.81
2023-01-26T07:39:31.560Z,100138.78
2023-01-26T07:41:58.962Z,100143.28
2023-01-26T07:44:48.298Z,100146.50
2023-01-26T07:47:16.641Z,100150.38
2023-01-26T07:49:44.183Z,100153.75
2023-01-26T07:52:11.732Z,100153.88
2023-01-26T07:54:39.421Z,100160.38
2023-01-26T07:57:09.453Z,100158.22
2023-01-26T07:59:37.174Z,100143.28
2023-01-26T08:02:04.462Z,100132.28
2023-01-26T08:04:32.100Z,100138.66
2023-01-26T08:07:00.110Z,100132.88
2023-01-26T08:09:27.746Z,100141.81
2023-01-26T08:11:58.919Z,100138.66
2023-01-26T08:14:33.137Z,100130.94
2023-01-26T08:17:08.926Z,100116.09
2023-01-26T08:19:36.407Z,100133.81
2023-01-26T08:22:03.821Z,100136.13
2023-01-26T08:24:31.705Z,100130.94
2023-01-26T08:26:58.979Z,100130.94
2023-01-26T08:29:26.451Z,100123.94
2023-01-26T08:31:53.845Z,100126.59
2023-01-26T08:34:22.599Z,100119.84
2023-01-26T08:36:49.740Z,100112.34
2023-01-26T08:39:17.474Z,100114.28
2023-01-26T08:41:45.703Z,100109.78
2023-01-26T08:44:13.827Z,100116.91
2023-01-26T08:46:44.545Z,100117.75
2023-01-26T08:49:12.970Z,100119.53
2023-01-26T08:51:40.156Z,100129.22
2023-01-26T08:54:10.861Z,100125.59
2023-01-26T08:56:38.035Z,100120.13
2023-01-26T08:59:05.564Z,100121.47
2023-01-26T09:01:33.083Z,100105.34
2023-01-26T09:04:01.852Z,100110.66
2023-01-26T09:06:33.282Z,100123.44
2023-01-26T09:09:01.922Z,100113.31
2023-01-26T09:11:30.505Z,100122.72
2023-01-26T09:13:58.773Z,100117.16
2023-01-26T09:16:27.423Z,100116.53
2023-01-26T09:18:57.490Z,100117.84
2023-01-26T09:21:24.879Z,100112.19
2023-01-26T09:23:55.821Z,100111.84
2023-01-26T09:26:23.597Z,100118.59
2023-01-26T09:28:53.871Z,100110.38
2023-01-26T09:31:21.763Z,100110.97
2023-01-26T09:33:50.954Z,100115.81
2023-01-26T09:36:20.978Z,100109.91
2023-01-26T09:38:49.583Z,100088.38
2023-01-26T09:41:25.638Z,100101.59
2023-01-26T09:43:57.728Z,100091.09
2023-01-26T09:46:27.055Z,100096.94
2023-01-26T09:49:00.662Z,100087.47
2023-01-26T09:51:37.961Z,100092.16
2023-01-26T09:54:30.533Z,100089.25
2023-01-26T09:57:01.546Z,100086.91
2023-01-26T09:59:39.243Z,100099.38
2023-01-26T10:02:23.416Z,100079.78
2023-01-26T10:04:57.623Z,100078.44
2023-01-26T10:07:24.928Z,100082.59
2023-01-26T10:09:53.779Z,100065.19
2023-01-26T10:12:35.559Z,100071.03
2023-01-26T10:15:29.612Z,100066.47
2023-01-26T10:17:59.403Z,100068.88
2023-01-26T10:20:33.854Z,100055.25
2023-01-26T10:23:05.813Z,100044.44
2023-01-26T10:25:39.668Z,100041.69
2023-01-26T10:28:19.393Z,100043.91
2023-01-26T10:30:49.126Z,100044.75
2023-01-26T10:33:35.229Z,100030.03
2023-01-26T10:36:07.939Z,100025.63
2023-01-26T10:38:38.307Z,100022.91
2023-01-26T10:41:17.056Z,100020.19
2023-01-26T10:44:14.338Z,100019.88
2023-01-26T10:46:43.030Z,100017.19
2023-01-26T10:49:18.283Z,100015.78
2023-01-26T10:52:08.619Z,99968.06
2023-01-26T10:54:37.321Z,99988.41
2023-01-26T10:57:14.824Z,99991.78
2023-01-26T10:59:55.977Z,99985.22
2023-01-26T11:02:29.920Z,99984.84
2023-01-26T11:05:06.979Z,99986.53
2023-01-26T11:07:40.104Z,99982.38
2023-01-26T11:10:22.419Z,99982.00
2023-01-26T11:12:51.668Z,99965.72
2023-01-26T11:15:23.357Z,99958.00
2023-01-26T11:17:58.075Z,99933.69
2023-01-26T11:20:49.623Z,99925.59
2023-01-26T11:23:28.572Z,99944.00
2023-01-26T11:26:23.225Z,99942.50
2023-01-26T11:29:05.599Z,99949.00
2023-01-26T11:32:01.009Z,99946.75
2023-01-26T11:34:39.606Z,99943.84
2023-01-26T11:37:32.368Z,99928.78
2023-01-26T11:40:18.189Z,99927.53
2023-01-26T11:43:05.364Z,99928.72
2023-01-26T11:45:32.911Z,99921.75
2023-01-26T11:48:19.098Z,99914.63
2023-01-26T11:51:16.659Z,99920.59
2023-01-26T11:53:46.998Z,99918.13
2023-01-26T11:56:36.808Z,99906.25
2023-01-26T11:59:08.347Z,99907.41
2023-01-26T12:01:48.992Z,99913.06
2023-01-26T12:04:20.297Z,99899.34
2023-01-26T12:06:55.659Z,99911.31
2023-01-26T12:09:33.479Z,99904.78
2023-01-26T12:12:38.385Z,99906.88
2023-01-26T12:15:34.543Z,99900.72
2023-01-26T12:18:46.951Z,99899.06
2023-01-26T12:21:21.116Z,99877.22
2023-01-26T12:24:02.866Z,99887.50
2023-01-26T12:26:35.841Z,99883.13
2023-01-26T12:29:14.249Z,99876.13
2023-01-26T12:31:59.838Z,99878.06
2023-01-26T12:34:34.280Z,99874.88
2023-01-26T12:37:16.899Z,99872.69
2023-01-26T12:39:48.971Z,99858.03
2023-01-26T12:42:16.175Z,99864.47
2023-01-26T12:44:55.021Z,99864.16
2023-01-26T12:47:38.742Z,99860.63
2023-01-26T12:50:18.050Z,99865.50
2023-01-26T12:53:07.200Z,99877.44
2023-01-26T12:55:52.118Z,99869.84
2023-01-26T12:58:48.819Z,99868.47
2023-01-26T13:01:20.907Z,99862.63
2023-01-26T13:03:58.571Z,99863.53
2023-01-26T13:06:28.114Z,99860.47
2023-01-26T13:08:58.670Z,99863.94
2023-01-26T13:11:39.584Z,99853.81
2023-01-26T13:14:29.795Z,99852.91
2023-01-26T13:16:58.647Z,99865.78
2023-01-26T13:19:38.103Z,99856.84
2023-01-26T13:22:25.659Z,99861.91
2023-01-26T13:24:56.120Z,99858.44
2023-01-26T13:27:59.856Z,99855.69
2023-01-26T13:30:27.187Z,99853.03
2023-01-26T13:33:10.885Z,99846.16
2023-01-26T13:35:40.967Z,99855.34
2023-01-26T13:38:36.691Z,99848.69
2023-01-26T13:41:11.555Z,99849.78
2023-01-26T13:43:47.232Z,99840.19
2023-01-26T13:46:22.277Z,99835.56
2023-01-26T13:48:55.944Z,99835.06
2023-01-26T13:51:28.804Z,99825.72
2023-01-26T13:54:13.915Z,99839.41
2023-01-26T13:56:44.174Z,99831.31
2023-01-26T13:59:20.857Z,99837.41
2023-01-26T14:01:54.327Z,99839.59
2023-01-26T14:04:27.324Z,99839.53
2023-01-26T14:07:13.117Z,99825.22
2023-01-26T14:09:51.297Z,99837.97
2023-01-26T14:12:32.151Z,99829.22
2023-01-26T14:15:03.445Z,99822.94
2023-01-26T14:17:38.901Z,99828.38
2023-01-26T14:20:28.573Z,99823.91
2023-01-26T14:23:19.148Z,99830.06
2023-01-26T14:25:58.577Z,99823.19
2023-01-26T14:28:36.940Z,99823.38
2023-01-26T14:31:15.679Z,99814.22
2023-01-26T14:33:44.849Z,99809.53
2023-01-26T14:36:19.355Z,99818.00
2023-01-26T14:38:50.643Z,99806.69
2023-01-26T14:41:34.415Z,99819.56
2023-01-26T14:44:05.191Z,99810.31
2023-01-26T14:46:53.171Z,99818.59
2023-01-26T14:49:34.247Z,99819.75
2023-01-26T14:52:02.892Z,99823.72
2023-01-26T14:54:34.853Z,99806.72
2023-01-26T14:57:09.549Z,99818.28
2023-01-26T14:59:40.540Z,99807.59
2023-01-26T15:02:19.185Z,99812.38
2023-01-26T15:05:17.204Z,99821.53
2023-01-26T15:08:01.085Z,99810.13
2023-01-26T15:10:35.088Z,99809.59
2023-01-26T15:13:16.119Z,99810.97
2023-01-26T15:15:49.131Z,99803.84
2023-01-26T15:18:21.112Z,99800.09
2023-01-26T15:21:04.202Z,99784.88
2023-01-26T15:23:36.786Z,99794.66
2023-01-26T15:26:28.817Z,99798.84
2023-01-26T15:28:58.843Z,99793.19
2023-01-26T15:31:36.819Z,99786.81
2023-01-26T15:34:05.900Z,99784.88
2023-01-26T15:36:47.149Z,99785.78
2023-01-26T15:39:18.502Z,99797.81
2023-01-26T15:41:59.752Z,99778.53
2023-01-26T15:44:28.725Z,99794.19
2023-01-26T15:46:57.879Z,99794.91
2023-01-26T15:49:25.403Z,99789.72
2023-01-26T15:51:54.166Z,99785.25
2023-01-26T15:54:21.901Z,99792.13
2023-01-26T15:56:49.090Z,99779.28
2023-01-26T15:59:16.619Z,99786.13
2023-01-26T16:01:47.841Z,99788.13
2023-01-26T16:04:17.096Z,99787.00
2023-01-26T16:06:44.388Z,99778.91
2023-01-26T16:09:11.834Z,99792.75
2023-01-26T16:11:47.207Z,99789.59
2023-01-26T16:14:16.286Z,99793.69
2023-01-26T16:16:43.795Z,99799.03
2023-01-26T16:19:26.311Z,99800.00
2023-01-26T16:22:01.769Z,99800.00
2023-01-26T16:24:29.425Z,99798.19
2023-01-26T16:26:56.668Z,99798.75
2023-01-26T16:29:24.574Z,99800.13
2023-01-26T16:31:52.134Z,99804.66
2023-01-26T16:34:19.648Z,99794.03
2023-01-26T16:36:46.853Z,99802.69
2023-01-26T16:39:14.630Z,99800.19
2023-01-26T16:41:41.895Z,99795.44
2023-01-26T16:44:14.875Z,99797.66
2023-01-26T16:46:42.931Z,99800.63
2023-01-26T16:49:15.825Z,99788.72
2023-01-26T16:51:44.263Z,99799.06
2023-01-26T16:54:12.775Z,99807.78
2023-01-26T16:56:41.501Z,99805.13
2023-01-26T16:59:09.037Z,99810.00
2023-01-26T17:01:38.049Z,99800.13
2023-01-26T17:04:05.890Z,99805.53
2023-01-26T17:06:34.389Z,99812.53
2023-01-26T17:09:02.144Z,99811.66
2023-01-26T17:11:29.775Z,99803.75
2023-01-26T17:13:59.396Z,99795.34
2023-01-26T17:16:34.746Z,99791.72
2023-01-26T17:19:02.347Z,99784.03
2023-01-26T17:21:30.581Z,99781.63
2023-01-26T17:23:59.028Z,99786.69
2023-01-26T17:26:26.433Z,99789.59
2023-01-26T17:28:55.716Z,99780.03
2023-01-26T17:31:24.964Z,99772.63
2023-01-26T17:33:55.021Z,99779.47
2023-01-26T17:36:24.727Z,99766.38
2023-01-26T17:38:53.294Z,99769.53
2023-01-26T17:41:20.767Z,99761.13
2023-01-26T17:43:48.516Z,99761.25
2023-01-26T17:46:17.672Z,99754.56
2023-01-26T17:48:46.029Z,99748.72
2023-01-26T17:51:17.155Z,99748.25
2023-01-26T17:53:49.668Z,99754.81
2023-01-26T17:56:19.463Z,99757.66
2023-01-26T17:58:52.705Z,99735.94
2023-01-26T18:01:24.359Z,99744.50
2023-01-26T18:04:18.252Z,99747.28
2023-01-26T18:06:48.010Z,99744.81
2023-01-26T18:09:15.516Z,99746.47
2023-01-26T18:11:43.794Z,99739.75
2023-01-26T18:14:11.325Z,99738.63
2023-01-26T18:16:39.584Z,99733.56
2023-01-26T18:19:08.178Z,99721.97
2023-01-26T18:21:37.612Z,99737.63
2023-01-26T18:24:07.256Z,99732.78
2023-01-26T18:26:40.876Z,99733.75
2023-01-26T18:29:12.620Z,99738.09
2023-01-26T18:31:43.515Z,99714.97
2023-01-26T18:34:14.866Z,99732.50
2023-01-26T18:36:42.279Z,99720.91
2023-01-26T18:39:14.379Z,99718.94
2023-01-26T18:41:43.458Z,99713.31
2023-01-26T18:44:13.697Z,99709.66
2023-01-26T18:46:45.773Z,99711.34
2023-01-26T18:49:13.294Z,99718.78
2023-01-26T18:51:48.026Z,99717.25
2023-01-26T18:54:16.584Z,99707.53
2023-01-26T18:56:43.852Z,99703.72
2023-01-26T18:59:12.700Z,99707.88
2023-01-26T19:01:46.017Z,99709.69
2023-01-26T19:04:13.661Z,99712.22
2023-01-26T19:06:40.902Z,99694.19
2023-01-26T19:09:11.872Z,99702.25
2023-01-26T19:11:39.975Z,99702.25
2023-01-26T19:14:08.938Z,99695.16
2023-01-26T19:16:37.037Z,99697.09
2023-01-26T19:19:05.465Z,99703.16
2023-01-26T19:21:37.382Z,99673.34
2023-01-26T19:24:07.281Z,99678.56
2023-01-26T19:26:35.907Z,99672.00
2023-01-26T19:29:03.835Z,99670.31
2023-01-26T19:31:32.989Z,99671.84
2023-01-26T19:34:03.152Z,99670.69
2023-01-26T19:36:36.124Z,99665.13
2023-01-26T19:39:05.692Z,99667.94
2023-01-26T19:41:33.942Z,99667.22
2023-01-26T19:44:01.938Z,99669.72
2023-01-26T19:46:29.189Z,99666.69
2023-01-26T19:48:56.710Z,99661.22
2023-01-26T19:51:25.807Z,99666.69
2023-01-26T19:53:58.806Z,99664.63
2023-01-26T19:56:32.066Z,99658.44
2023-01-26T19:59:02.204Z,99656.75
2023-01-26T20:01:33.403Z,99654.25
2023-01-26T20:04:05.633Z,99636.06
2023-01-26T20:06:36.137Z,99655.50
2023-01-26T20:09:06.318Z,99647.38
2023-01-26T20:11:36.569Z,99662.63
2023-01-26T20:14:14.178Z,99656.06
2023-01-26T20:16:42.827Z,99651.16
2023-01-26T20:19:12.822Z,99643.47
2023-01-26T20:21:43.850Z,99653.13
2023-01-26T20:24:16.971Z,99644.59
2023-01-26T20:26:45.687Z,99647.53
2023-01-26T20:29:15.605Z,99639.72
2023-01-26T20:31:46.954Z,99646.13
2023-01-26T20:34:16.656Z,99652.03
2023-01-26T20:36:43.882Z,99638.22
2023-01-26T20:39:18.649Z,99640.00
2023-01-26T20:41:48.718Z,99638.31
2023-01-26T20:44:16.861Z,99636.91
2023-01-26T20:46:44.318Z,99642.41
2023-01-26T20:49:32.616Z,99641.13
2023-01-26T20:52:01.091Z,99599.13
2023-01-26T20:54:30.199Z,99637.47
2023-01-26T20:56:57.895Z,99645.31
2023-01-26T20:59:25.762Z,99636.38
2023-01-26T21:01:53.549Z,99630.50
2023-01-26T21:04:24.717Z,99643.53
2023-01-26T21:06:54.591Z,99631.59
2023-01-26T21:09:22.634Z,99635.41
2023-01-26T21:11:49.993Z,99627.97
2023-01-26T21:14:18.268Z,99641.69
2023-01-26T21:16:47.197Z,99634.69
2023-01-26T21:19:14.763Z,99645.59
2023-01-26T21:21:44.816Z,99632.69
2023-01-26T21:24:15.238Z,99632.16
2023-01-26T21:26:43.310Z,99625.97
2023-01-26T21:29:16.037Z,99627.81
2023-01-26T21:31:45.730Z,99623.19
2023-01-26T21:34:13.617Z,99619.84
2023-01-26T21:36:40.831Z,99632.44
2023-01-26T21:39:15.710Z,99626.28
2023-01-26T21:41:57.764Z,99632.19
2023-01-26T21:44:31.403Z,99629.94
2023-01-26T21:47:01.619Z,99622.41
2023-01-26T21:49:29.599Z,99621.00
2023-01-26T21:52:15.913Z,99607.31
2023-01-26T21:54:43.438Z,99592.91
2023-01-26T21:57:34.414Z,99594.84
2023-01-26T22:00:02.182Z,99595.56
2023-01-26T22:02:34.539Z,99600.16
2023-01-26T22:05:02.087Z,99590.78
2023-01-26T22:07:29.942Z,99582.53
2023-01-26T22:09:59.019Z,99568.56
2023-01-26T22:12:26.317Z,99563.38
2023-01-26T22:14:57.001Z,99556.53
2023-01-26T22:17:24.556Z,99554.03
2023-01-26T22:19:52.100Z,99550.22
2023-01-26T22:22:19.600Z,99530.25
2023-01-26T22:24:50.220Z,99537.09
2023-01-26T22:27:18.597Z,99521.16
2023-01-26T22:29:46.298Z,99519.59
2023-01-26T22:32:14.497Z,99519.19
2023-01-26T22:34:42.289Z,99517.09
2023-01-26T22:37:09.460Z,99515.00
2023-01-26T22:39:37.977Z,99527.03
2023-01-26T22:42:05.474Z,99519.88
2023-01-26T22:44:35.547Z,99515.97
2023-01-26T22:47:05.085Z,99531.09
2023-01-26T22:49:32.556Z,99527.31
2023-01-26T22:52:00.533Z,99530.50
2023-01-26T22:54:28.096Z,99520.31
2023-01-26T22:56:56.059Z,99539.59
2023-01-26T22:59:24.602Z,99519.47
2023-01-26T23:01:51.921Z,99538.19
2023-01-26T23:04:20.167Z,99532.19
2023-01-26T23:06:47.808Z,99528.81
2023-01-26T23:09:15.254Z,99528.97
2023-01-26T23:11:42.523Z,99539.16
2023-01-26T23:14:17.669Z,99529.78
2023-01-26T23:16:47.086Z,99538.06
2023-01-26T23:19:15.873Z,99506.31
2023-01-26T23:21:45.509Z,99532.06
2023-01-26T23:24:13.948Z,99526.47
2023-01-26T23:26:41.094Z,99530.78
2023-01-26T23:29:08.668Z,99530.78
2023-01-26T23:31:37.544Z,99528.13
2023-01-26T23:34:06.138Z,99537.22
2023-01-26T23:36:34.603Z,99521.44
2023-01-26T23:39:02.223Z,99528.28
2023-01-26T23:41:30.905Z,99529.13
2023-01-26T23:43:59.229Z,99527.47
2023-01-26T23:46:26.970Z,99505.78
2023-01-26T23:48:54.449Z,99515.72
2023-01-26T23:51:23.890Z,99522.00
2023-01-26T23:53:51.655Z,99506.19
2023-01-26T23:56:19.009Z,99509.53
2023-01-26T23:58:46.625Z,99501.56
